Latest Weather Observations for Ben Nevis

IDV60801

Issued at 3:02 pm EDT Thursday 23 March 2017 (issued every 30 minutes, with the page automatically refreshed every 10 minutes)

About weather observations | Map of weather stations | Latest weather observations for VIC | Other Formats
Station Details ID: 079101 Name: BEN NEVIS Lat: -37.23 Lon: 143.20 Height: 875.0 m
Data from the previous 72 hours. | See also: Recent months at Ben Nevis
Date/Time
EDT
Temp
°C
App
Temp
°C
Dew
Point
°C
Rel
Hum
%
Delta-T
°C
Wind Press
QNH
hPa
Press
MSL
hPa
Rain since
9am
mm
Dir  Spd
km/h
Gust
km/h
Spd
kts
Gust
kts
23/03:00pm 18.1 16.1 12.8 71 3.1 SE 15 24 8 13 - - 0.0
23/02:30pm 16.9 14.4 12.4 75 2.6 SE 17 26 9 14 - - 0.0
23/02:00pm 17.1 14.8 13.0 77 2.4 ESE 17 28 9 15 - - 0.0
23/01:30pm 17.7 16.2 13.2 75 2.6 SE 13 26 7 14 - - 0.0
23/01:00pm 17.3 16.1 12.8 75 2.6 SE 11 20 6 11 - - 0.0
23/12:30pm 16.5 14.9 12.7 78 2.2 SE 13 19 7 10 - - 0.0
23/12:00pm 15.9 13.5 12.5 80 2.0 ESE 17 26 9 14 - - 0.0
23/11:30am 15.4 13.0 12.7 84 1.6 ESE 17 28 9 15 - - 0.0
23/11:00am 14.6 12.0 12.1 85 1.4 ESE 17 26 9 14 - - 0.0
23/10:30am 14.7 12.8 11.8 83 1.6 ESE 13 22 7 12 - - 0.0
23/10:00am 14.2 10.8 11.4 83 1.6 ESE 20 30 11 16 - - 0.0
23/09:30am 13.4 9.6 11.1 86 1.3 ESE 22 30 12 16 - - 0.0
23/09:00am 13.0 9.5 10.9 87 1.2 SE 20 28 11 15 - - 0.0
23/08:30am 11.9 7.6 10.6 92 0.7 SE 24 35 13 19 - - 0.0
23/08:00am 11.2 6.4 10.3 94 0.5 ESE 26 39 14 21 - - 0.0
23/07:30am 11.5 6.7 10.2 92 0.7 ESE 26 35 14 19 - - 0.0
23/07:00am 11.6 6.7 10.0 90 0.9 ESE 26 33 14 18 - - 0.0
23/06:30am 12.0 7.5 10.1 88 1.0 ESE 24 32 13 17 - - 0.0
23/06:00am 12.6 7.2 9.6 82 1.6 ESE 28 37 15 20 - - 0.0
23/05:30am 11.7 5.6 9.8 88 1.0 ESE 32 44 17 24 - - 0.0
23/05:00am 12.3 5.9 9.5 83 1.5 ESE 33 48 18 26 - - 0.0
23/04:30am 13.1 5.9 9.2 77 2.1 ESE 37 56 20 30 - - 0.0
23/04:00am 12.1 3.9 9.7 85 1.3 ESE 43 63 23 34 - - 0.0
23/03:39am 11.6 3.5 10.2 91 0.8 ESE 43 69 23 37 - - 0.0
23/03:30am 11.8 4.1 10.2 90 0.9 ESE 41 57 22 31 - - 0.0
23/03:06am 11.8 5.3 10.5 92 0.7 SE 35 63 19 34 - - 0.0
23/03:00am 11.8 5.7 10.4 91 0.8 SE 33 46 18 25 - - 0.0
23/02:30am 11.8 4.6 10.5 92 0.7 ESE 39 54 21 29 - - 0.0
23/02:00am 12.0 4.1 10.9 93 0.6 ESE 43 61 23 33 - - 0.0
23/01:30am 12.2 3.8 10.9 92 0.7 ESE 46 70 25 38 - - 0.0
23/01:01am 11.9 3.7 11.7 99 0.1 ESE 46 65 25 35 - - 0.0
23/01:00am 11.8 3.6 11.6 99 0.1 ESE 46 63 25 34 - - 0.0
23/12:30am 11.8 3.6 11.6 99 0.1 ESE 46 69 25 37 - - 0.0
23/12:00am 11.9 2.9 11.7 99 0.1 ESE 50 72 27 39 - - 0.0
 
Date/Time
EDT
Temp
°C
App
Temp
°C
Dew
Point
°C
Rel
Hum
%
Delta-T
°C
Wind Press
QNH
hPa
Press
MSL
hPa
Rain since
9am
mm
Dir  Spd
km/h
Gust
km/h
Spd
kts
Gust
kts
22/11:30pm 12.0 5.2 11.8 99 0.1 ESE 39 69 21 37 - - 0.0
22/11:00pm 12.0 6.9 11.8 99 0.1 ESE 30 52 16 28 - - 0.0
22/10:33pm 12.1 7.4 11.9 99 0.1 ESE 28 50 15 27 - - 0.0
22/10:30pm 12.1 7.8 11.9 99 0.1 ESE 26 46 14 25 - - 0.0
22/10:18pm 12.1 7.4 11.9 99 0.1 SE 28 46 15 25 - - 0.0
22/10:00pm 12.2 9.0 12.0 99 0.1 ESE 20 46 11 25 - - 0.0
22/09:30pm 12.3 9.1 12.0 98 0.2 SE 20 43 11 23 - - 0.0
22/09:00pm 12.7 9.5 11.9 95 0.4 ESE 20 39 11 21 - - 0.0
22/08:30pm 12.8 9.5 11.7 93 0.6 SE 20 37 11 20 - - 0.0
22/08:00pm 13.1 11.5 11.7 91 0.8 ESE 11 35 6 19 - - 0.0
22/07:30pm 13.4 12.3 11.8 90 0.9 SE 9 28 5 15 - - 0.0
22/07:00pm 13.7 12.2 11.9 89 1.0 S 11 24 6 13 - - 0.0
22/06:30pm 13.7 11.1 12.1 90 0.9 SSE 17 28 9 15 - - 0.0
22/06:00pm 13.8 11.1 11.8 88 1.1 SE 17 28 9 15 - - 0.0
22/05:30pm 14.2 11.6 12.1 87 1.2 SSE 17 37 9 20 - - 0.0
22/05:00pm 14.4 11.2 11.9 85 1.4 SE 20 35 11 19 - - 0.0
22/04:30pm 14.5 11.4 12.2 86 1.3 SE 20 41 11 22 - - 0.0
22/04:00pm 14.7 11.2 12.2 85 1.4 SE 22 43 12 23 - - 0.0
22/03:30pm 14.6 11.3 12.8 89 1.0 SSE 22 43 12 23 - - 0.0
22/03:00pm 14.3 11.6 12.9 91 0.8 SSE 19 32 10 17 - - 0.0
22/02:30pm 14.3 11.3 12.7 90 0.9 SSE 20 37 11 20 - - 0.0
22/02:00pm 14.9 12.1 13.1 89 1.0 SSE 20 35 11 19 - - 0.0
22/01:30pm 14.1 10.3 13.5 96 0.3 SSE 26 46 14 25 - - 0.0
22/01:25pm 13.6 9.2 13.0 96 0.3 SSE 28 46 15 25 - - 0.0
22/01:00pm 13.3 10.0 12.7 96 0.3 SSE 22 37 12 20 - - 0.0
22/12:30pm 13.5 9.5 12.9 96 0.3 SSE 26 43 14 23 - - 0.0
22/12:00pm 13.9 10.7 13.0 94 0.5 SSE 22 35 12 19 - - 0.0
22/11:30am 14.2 8.5 13.1 93 0.6 SSE 35 57 19 31 - - 0.0
22/11:00am 13.2 7.7 12.6 96 0.3 SSE 33 59 18 32 - - 0.0
22/10:30am 13.7 7.7 13.2 97 0.3 SSE 37 56 20 30 - - 0.0
22/10:00am 12.6 7.1 12.4 99 0.1 SE 33 59 18 32 - - 0.0
22/09:33am 12.3 6.9 12.1 99 0.1 SSE 32 54 17 29 - - 0.0
22/09:30am 12.3 6.9 12.1 99 0.1 SSE 32 48 17 26 - - 0.0
22/09:01am 12.3 7.6 12.1 99 0.1 SSE 28 46 15 25 - - 0.0
22/09:00am 12.2 7.9 12.0 99 0.1 SSE 26 46 14 25 - - 18.8
22/08:53am 12.2 7.5 12.0 99 0.1 SSE 28 48 15 26 - - 18.8
22/08:30am 12.2 8.3 12.0 99 0.1 SE 24 43 13 23 - - 18.8
22/08:20am 12.1 7.4 11.9 99 0.1 SE 28 48 15 26 - - 18.8
22/08:00am 12.1 7.8 11.9 99 0.1 SE 26 41 14 22 - - 18.8
22/07:30am 12.0 7.2 11.8 99 0.1 SE 28 44 15 24 - - 18.8
22/07:00am 12.0 7.2 11.8 99 0.1 SSE 28 48 15 26 - - 18.8
22/06:39am 12.1 7.4 11.9 99 0.1 SSE 28 50 15 27 - - 18.8
22/06:30am 12.1 8.1 11.9 99 0.1 SSE 24 41 13 22 - - 18.8
22/06:00am 12.3 8.0 12.1 99 0.1 S 26 46 14 25 - - 18.8
22/05:33am 12.4 7.8 12.2 99 0.1 SSE 28 52 15 28 - - 18.6
22/05:30am 12.5 8.3 12.3 99 0.1 SSE 26 52 14 28 - - 18.6
22/05:00am 12.7 8.5 12.5 99 0.1 SSE 26 46 14 25 - - 18.6
22/04:59am 12.7 8.5 12.5 99 0.1 SSE 26 46 14 25 - - 18.6
22/04:30am 12.8 9.4 12.6 99 0.1 SSE 22 44 12 24 - - 18.6
22/04:00am 13.0 10.3 12.8 99 0.1 SSE 19 28 10 15 - - 18.6
22/03:30am 13.1 10.8 12.9 99 0.1 SE 17 26 9 14 - - 18.6
22/03:00am 13.3 10.7 13.1 99 0.1 S 19 30 10 16 - - 18.6
22/02:30am 13.5 10.0 13.3 99 0.1 S 24 41 13 22 - - 18.6
22/02:00am 13.7 11.2 13.5 99 0.1 S 19 33 10 18 - - 18.6
22/01:30am 13.8 11.7 13.6 99 0.1 SSE 17 28 9 15 - - 18.6
22/01:00am 14.0 12.4 13.8 99 0.1 S 15 32 8 17 - - 18.6
22/12:30am 14.3 11.0 14.1 99 0.1 S 24 35 13 19 - - 18.4
22/12:00am 14.8 12.7 14.6 99 0.1 S 19 28 10 15 - - 18.4
 
Date/Time
EDT
Temp
°C
App
Temp
°C
Dew
Point
°C
Rel
Hum
%
Delta-T
°C
Wind Press
QNH
hPa
Press
MSL
hPa
Rain since
9am
mm
Dir  Spd
km/h
Gust
km/h
Spd
kts
Gust
kts
21/11:30pm 15.1 13.5 14.9 99 0.1 SSE 17 22 9 12 - - 18.4
21/11:00pm 15.0 14.8 14.8 99 0.1 S 9 17 5 9 - - 18.4
21/10:30pm 14.9 12.8 14.7 99 0.1 S 19 24 10 13 - - 18.4
21/10:00pm 15.0 12.0 14.8 99 0.1 S 24 35 13 19 - - 18.4
21/09:30pm 15.6 12.4 15.4 99 0.1 SSW 26 37 14 20 - - 18.4
21/09:00pm 16.1 14.8 15.9 99 0.1 SW 17 24 9 13 - - 18.4
21/08:30pm 15.9 13.6 15.7 99 0.1 SSW 22 32 12 17 - - 18.4
21/08:00pm 15.9 14.0 15.7 99 0.1 SSW 20 32 11 17 - - 18.4
21/07:30pm 15.9 14.0 15.7 99 0.1 SSW 20 37 11 20 - - 18.4
21/07:00pm 16.2 15.0 16.0 99 0.1 S 17 26 9 14 - - 18.4
21/06:30pm 16.6 15.5 16.4 99 0.1 SSW 17 28 9 15 - - 18.4
21/06:00pm 16.7 15.1 16.5 99 0.1 SSW 20 32 11 17 - - 18.4
21/05:30pm 17.1 15.8 16.9 99 0.1 SSW 19 26 10 14 - - 18.4
21/05:00pm 17.2 15.4 17.0 99 0.1 SSW 22 37 12 20 - - 18.4
21/04:30pm 17.7 16.7 17.5 99 0.1 SSW 19 30 10 16 - - 18.4
21/04:00pm 17.2 16.4 17.0 99 0.1 WSW 17 28 9 15 - - 18.4
21/03:30pm 17.8 17.6 17.6 99 0.1 W 15 26 8 14 - - 18.4
21/03:00pm 17.8 18.4 17.6 99 0.1 WNW 11 19 6 10 - - 18.4
21/02:30pm 17.7 17.8 17.5 99 0.1 WNW 13 26 7 14 - - 18.4
21/02:00pm 17.7 18.2 17.5 99 0.1 NNW 11 20 6 11 - - 16.8
21/01:30pm 18.2 18.9 18.0 99 0.1 NNW 11 19 6 10 - - 16.8
21/01:00pm 17.3 18.0 17.1 99 0.1 NNW 9 17 5 9 - - 16.8
21/12:30pm 17.0 17.6 16.8 99 0.1 N 9 17 5 9 - - 9.4
21/12:00pm 17.0 16.5 16.8 99 0.1 NNE 15 26 8 14 - - 3.6
21/11:30am 17.0 16.5 16.8 99 0.1 NE 15 24 8 13 - - 1.0
21/11:00am 17.0 15.5 16.8 99 0.1 NE 20 33 11 18 - - 1.0
21/10:30am 16.8 15.2 16.6 99 0.1 NE 20 32 11 17 - - 0.8
21/10:00am 16.9 14.2 16.7 99 0.1 ENE 26 37 14 20 - - 0.8
21/09:30am 16.8 15.8 16.6 99 0.1 NE 17 30 9 16 - - 0.0
21/09:00am 16.8 14.5 16.6 99 0.1 NE 24 35 13 19 - - 8.2
21/08:30am 16.8 14.1 16.6 99 0.1 ENE 26 33 14 18 - - 8.2
21/08:00am 16.7 15.3 16.5 99 0.1 NE 19 28 10 15 - - 8.2
21/07:30am 16.7 14.7 16.5 99 0.1 NE 22 33 12 18 - - 8.0
21/07:00am 16.7 13.6 16.5 99 0.1 ENE 28 39 15 21 - - 8.0
21/06:30am 16.6 13.4 16.4 99 0.1 ENE 28 39 15 21 - - 8.0
21/06:00am 16.6 13.4 16.4 99 0.1 ENE 28 37 15 20 - - 8.0
21/05:30am 16.6 13.4 16.4 99 0.1 ENE 28 43 15 23 - - 8.0
21/05:00am 16.4 13.2 16.2 99 0.1 ENE 28 37 15 20 - - 7.8
21/04:30am 16.6 12.7 16.4 99 0.1 NE 32 43 17 23 - - 7.6
21/04:00am 16.6 12.5 16.4 99 0.1 ENE 33 48 18 26 - - 7.4
21/03:30am 16.6 13.1 16.4 99 0.1 ENE 30 43 16 23 - - 7.4
21/03:00am 16.7 13.2 16.4 98 0.2 ENE 30 41 16 22 - - 7.2
21/02:30am 17.1 12.9 16.3 95 0.5 ENE 33 46 18 25 - - 7.0
21/02:00am 17.4 13.2 16.1 92 0.8 ENE 33 48 18 26 - - 7.0
21/01:30am 19.2 15.6 15.3 78 2.4 ENE 28 37 15 20 - - 7.0
21/01:00am 19.6 15.7 14.4 72 3.1 E 28 35 15 19 - - 7.0
21/12:30am 19.6 17.0 15.0 75 2.8 E 22 32 12 17 - - 7.0
21/12:00am 19.2 16.5 15.5 79 2.3 E 24 33 13 18 - - 7.0
 
Date/Time
EDT
Temp
°C
App
Temp
°C
Dew
Point
°C
Rel
Hum
%
Delta-T
°C
Wind Press
QNH
hPa
Press
MSL
hPa
Rain since
9am
mm
Dir  Spd
km/h
Gust
km/h
Spd
kts
Gust
kts
20/11:30pm 19.0 15.3 16.0 83 1.9 E 30 37 16 20 - - 7.0
20/11:00pm 18.2 15.5 16.5 90 1.1 E 26 35 14 19 - - 7.0
20/10:30pm 17.4 13.7 16.9 97 0.3 E 32 43 17 23 - - 7.0
20/10:00pm 17.7 14.9 17.4 98 0.2 ESE 28 37 15 20 - - 6.8
20/09:30pm 18.1 15.4 17.6 97 0.3 E 28 41 15 22 - - 6.6
20/09:04pm 18.5 15.2 17.9 96 0.4 E 32 50 17 27 - - 6.4
20/09:00pm 18.5 15.0 18.0 97 0.3 ESE 33 50 18 27 - - 6.4
20/08:46pm 18.6 15.1 17.8 95 0.5 ESE 33 52 18 28 - - 6.4
20/08:30pm 19.2 17.7 16.8 86 1.5 ESE 20 32 11 17 - - 6.4
20/08:00pm 19.3 17.6 14.8 75 2.7 SSE 17 24 9 13 - - 6.4
20/07:30pm 19.6 17.6 15.0 75 2.8 S 19 24 10 13 - - 6.4
20/07:00pm 20.7 19.0 15.7 73 3.1 S 19 28 10 15 - - 6.4
20/06:30pm 21.6 20.0 15.9 70 3.6 S 19 26 10 14 - - 6.4
20/06:00pm 22.1 20.5 15.9 68 3.9 S 19 24 10 13 - - 6.4
20/05:30pm 22.8 21.8 16.6 68 3.9 S 17 20 9 11 - - 6.4
20/05:00pm 23.0 23.1 17.5 71 3.5 S 13 19 7 10 - - 6.4
20/04:30pm 23.0 23.5 16.5 67 4.1 ESE 9 15 5 8 - - 6.4
20/04:00pm 22.8 22.4 16.1 66 4.2 SE 13 20 7 11 - - 6.4
20/03:30pm 22.1 23.1 17.7 76 2.8 SE 9 17 5 9 - - 6.4

Other Formats:

Comma delimited format used in spreadsheet applications
http://www.bom.gov.au/fwo/IDV60801/IDV60801.94835.axf

JavaScript Object Notation format (JSON) in row-major order
http://www.bom.gov.au/fwo/IDV60801/IDV60801.94835.json